createdAt,value
2023-04-09T00:01:11.197Z,100977.65
2023-04-09T00:03:40.640Z,100977.34
2023-04-09T00:06:09.099Z,100977.42
2023-04-09T00:08:37.461Z,100977.70
2023-04-09T00:11:06.150Z,100976.70
2023-04-09T00:13:39.168Z,100977.29
2023-04-09T00:16:09.039Z,100979.08
2023-04-09T00:18:37.644Z,100977.46
2023-04-09T00:21:07.217Z,100978.60
2023-04-09T00:23:36.546Z,100978.45
2023-04-09T00:26:05.013Z,100977.73
2023-04-09T00:28:33.598Z,100978.11
2023-04-09T00:31:02.729Z,100978.73
2023-04-09T00:33:31.417Z,100977.77
2023-04-09T00:35:59.801Z,100979.98
2023-04-09T00:38:28.202Z,100979.14
2023-04-09T00:40:56.754Z,100982.83
2023-04-09T00:43:25.525Z,100984.23
2023-04-09T00:45:54.211Z,100982.89
2023-04-09T00:48:22.993Z,100985.84
2023-04-09T00:50:51.465Z,100988.08
2023-04-09T00:53:20.083Z,100988.23
2023-04-09T00:55:48.588Z,100989.70
2023-04-09T00:58:17.216Z,100988.73
2023-04-09T01:00:45.806Z,100993.12
2023-04-09T01:03:14.547Z,100993.66
2023-04-09T01:06:08.113Z,100995.21
2023-04-09T01:08:51.756Z,100996.46
2023-04-09T01:12:11.586Z,100995.59
2023-04-09T01:14:53.413Z,100995.06
2023-04-09T01:17:35.943Z,100995.30
2023-04-09T01:20:22.916Z,100999.59
2023-04-09T01:23:18.271Z,100998.50
2023-04-09T01:26:21.700Z,101000.34
2023-04-09T01:28:54.972Z,101000.31
2023-04-09T01:31:43.789Z,100999.84
2023-04-09T01:34:14.197Z,100997.79
2023-04-09T01:36:50.385Z,101000.80
2023-04-09T01:39:19.417Z,100999.86
2023-04-09T01:41:49.189Z,101000.86
2023-04-09T01:44:20.380Z,101005.48
2023-04-09T01:46:50.038Z,101005.87
2023-04-09T01:49:19.013Z,101008.61
2023-04-09T01:51:47.584Z,101005.06
2023-04-09T01:54:17.001Z,101009.14
2023-04-09T01:56:47.846Z,101006.58
2023-04-09T01:59:16.252Z,101007.83
2023-04-09T02:02:01.359Z,101013.55
2023-04-09T02:04:42.021Z,101013.95
2023-04-09T02:07:19.565Z,101018.92
2023-04-09T02:09:49.447Z,101020.25
2023-04-09T02:12:19.400Z,101016.68
2023-04-09T02:14:50.440Z,101019.65
2023-04-09T02:17:19.528Z,101020.20
2023-04-09T02:19:48.307Z,101023.14
2023-04-09T02:22:17.322Z,101017.14
2023-04-09T02:24:46.701Z,101017.38
2023-04-09T02:27:15.079Z,101012.96
2023-04-09T02:29:43.689Z,101012.69
2023-04-09T02:32:12.124Z,101012.89
2023-04-09T02:34:40.656Z,101008.63
2023-04-09T02:37:09.061Z,101010.96
2023-04-09T02:39:37.396Z,101013.59
2023-04-09T02:42:07.813Z,101016.60
2023-04-09T02:44:36.201Z,101015.45
2023-04-09T02:47:04.578Z,101018.69
2023-04-09T02:49:32.949Z,101020.42
2023-04-09T02:52:01.369Z,101019.50
2023-04-09T02:54:29.741Z,101019.83
2023-04-09T02:56:58.101Z,101019.48
2023-04-09T02:59:26.448Z,101019.83
2023-04-09T03:01:54.899Z,101017.73
2023-04-09T03:04:23.414Z,101021.03
2023-04-09T03:06:51.831Z,101022.36
2023-04-09T03:09:20.159Z,101023.69
2023-04-09T03:11:48.610Z,101026.96
2023-04-09T03:14:16.949Z,101033.20
2023-04-09T03:16:45.344Z,101029.89
2023-04-09T03:19:13.719Z,101028.00
2023-04-09T03:21:44.221Z,101029.22
2023-04-09T03:24:12.717Z,101029.80
2023-04-09T03:26:41.378Z,101026.88
2023-04-09T03:29:09.737Z,101024.63
2023-04-09T03:31:38.138Z,101024.54
2023-04-09T03:34:06.620Z,101027.20
2023-04-09T03:36:35.013Z,101024.86
2023-04-09T03:39:03.406Z,101027.60
2023-04-09T03:41:31.798Z,101025.92
2023-04-09T03:44:00.359Z,101022.48
2023-04-09T03:46:28.830Z,101022.17
2023-04-09T03:48:57.305Z,101026.36
2023-04-09T03:51:25.651Z,101028.26
2023-04-09T03:53:53.969Z,101027.89
2023-04-09T03:56:22.368Z,101033.09
2023-04-09T03:58:51.026Z,101031.10
2023-04-09T04:01:19.675Z,101034.35
2023-04-09T04:03:48.266Z,101033.11
2023-04-09T04:06:16.703Z,101035.30
2023-04-09T04:08:45.077Z,101034.50
2023-04-09T04:11:13.479Z,101034.20
2023-04-09T04:13:42.034Z,101038.56
2023-04-09T04:16:10.596Z,101037.21
2023-04-09T04:18:39.035Z,101037.27
2023-04-09T04:21:14.622Z,101035.96
2023-04-09T04:23:43.166Z,101040.11
2023-04-09T04:26:12.084Z,101040.95
2023-04-09T04:28:41.138Z,101045.90
2023-04-09T04:31:13.053Z,101044.61
2023-04-09T04:33:42.764Z,101046.48
2023-04-09T04:36:13.874Z,101051.13
2023-04-09T04:38:42.226Z,101051.29
2023-04-09T04:41:11.381Z,101047.80
2023-04-09T04:43:41.483Z,101046.46
2023-04-09T04:46:09.866Z,101045.66
2023-04-09T04:48:38.253Z,101050.29
2023-04-09T04:51:06.587Z,101046.19
2023-04-09T04:53:34.918Z,101046.36
2023-04-09T04:56:03.671Z,101051.38
2023-04-09T04:58:32.071Z,101053.89
2023-04-09T05:01:00.615Z,101057.14
2023-04-09T05:03:29.069Z,101050.98
2023-04-09T05:05:57.453Z,101050.55
2023-04-09T05:08:25.823Z,101048.03
2023-04-09T05:10:56.286Z,101048.95
2023-04-09T05:13:24.945Z,101050.55
2023-04-09T05:15:53.305Z,101050.70
2023-04-09T05:18:21.672Z,101051.65
2023-04-09T05:20:50.160Z,101053.65
2023-04-09T05:23:18.548Z,101056.84
2023-04-09T05:25:50.193Z,101058.68
2023-04-09T05:28:18.546Z,101059.50
2023-04-09T05:30:47.785Z,101061.72
2023-04-09T05:33:16.122Z,101062.61
2023-04-09T05:35:44.580Z,101062.48
2023-04-09T05:38:13.892Z,101063.04
2023-04-09T05:40:44.400Z,101064.30
2023-04-09T05:43:12.775Z,101067.45
2023-04-09T05:45:41.237Z,101070.56
2023-04-09T05:48:09.733Z,101068.41
2023-04-09T05:50:47.467Z,101072.85
2023-04-09T05:53:23.229Z,101073.45
2023-04-09T05:55:51.693Z,101073.41
2023-04-09T05:58:20.072Z,101074.94
2023-04-09T06:00:48.373Z,101076.86
2023-04-09T06:03:16.874Z,101075.92
2023-04-09T06:05:46.661Z,101077.42
2023-04-09T06:08:15.167Z,101077.29
2023-04-09T06:10:43.562Z,101072.49
2023-04-09T06:13:12.051Z,101073.58
2023-04-09T06:15:40.583Z,101078.52
2023-04-09T06:18:09.095Z,101080.35
2023-04-09T06:20:37.464Z,101082.05
2023-04-09T06:23:05.873Z,101078.59
2023-04-09T06:25:36.722Z,101080.29
2023-04-09T06:28:05.434Z,101084.61
2023-04-09T06:30:35.809Z,101083.71
2023-04-09T06:33:04.193Z,101080.73
2023-04-09T06:35:32.690Z,101074.86
2023-04-09T06:38:01.125Z,101077.63
2023-04-09T06:40:30.365Z,101072.39
2023-04-09T06:42:58.778Z,101070.40
2023-04-09T06:45:27.602Z,101070.19
2023-04-09T06:47:56.047Z,101068.13
2023-04-09T06:50:24.618Z,101067.36
2023-04-09T06:52:53.176Z,101068.70
2023-04-09T06:55:21.907Z,101068.19
2023-04-09T06:57:50.389Z,101066.73
2023-04-09T07:00:19.102Z,101070.85
2023-04-09T07:02:47.732Z,101070.75
2023-04-09T07:05:16.577Z,101075.13
2023-04-09T07:07:45.048Z,101078.52
2023-04-09T07:10:13.454Z,101080.14
2023-04-09T07:12:41.844Z,101090.48
2023-04-09T07:15:10.538Z,101093.21
2023-04-09T07:17:38.945Z,101092.26
2023-04-09T07:20:07.984Z,101093.86
2023-04-09T07:22:37.065Z,101093.18
2023-04-09T07:25:06.465Z,101099.96
2023-04-09T07:27:35.227Z,101103.91
2023-04-09T07:30:04.486Z,101108.41
2023-04-09T07:32:33.022Z,101108.57
2023-04-09T07:35:05.206Z,101109.36
2023-04-09T07:37:33.637Z,101110.64
2023-04-09T07:40:04.029Z,101105.37
2023-04-09T07:42:32.726Z,101104.77
2023-04-09T07:45:01.053Z,101107.75
2023-04-09T07:47:29.581Z,101116.05
2023-04-09T07:49:58.012Z,101119.10
2023-04-09T07:52:26.413Z,101121.44
2023-04-09T07:54:54.682Z,101119.92
2023-04-09T07:57:23.009Z,101117.80
2023-04-09T07:59:53.464Z,101120.02
2023-04-09T08:02:23.214Z,101128.20
2023-04-09T08:04:51.930Z,101132.45
2023-04-09T08:07:20.703Z,101131.16
2023-04-09T08:09:49.093Z,101130.52
2023-04-09T08:12:17.817Z,101130.70
2023-04-09T08:14:46.165Z,101125.54
2023-04-09T08:17:14.601Z,101123.33
2023-04-09T08:19:43.922Z,101123.90
2023-04-09T08:22:12.273Z,101117.53
2023-04-09T08:24:40.584Z,101120.15
2023-04-09T08:27:08.974Z,101123.50
2023-04-09T08:29:38.700Z,101121.94
2023-04-09T08:32:07.104Z,101117.38
2023-04-09T08:34:35.440Z,101118.33
2023-04-09T08:37:03.902Z,101116.52
2023-04-09T08:39:32.517Z,101117.86
2023-04-09T08:42:03.734Z,101115.71
2023-04-09T08:44:32.165Z,101117.26
2023-04-09T08:47:01.216Z,101119.66
2023-04-09T08:49:29.671Z,101123.95
2023-04-09T08:51:58.099Z,101125.20
2023-04-09T08:54:26.837Z,101129.76
2023-04-09T08:56:56.434Z,101134.89
2023-04-09T08:59:24.958Z,101129.86
2023-04-09T09:02:11.735Z,101129.73
2023-04-09T09:04:48.762Z,101130.85
2023-04-09T09:07:17.678Z,101129.71
2023-04-09T09:09:55.646Z,101133.31
2023-04-09T09:12:35.276Z,101129.16
2023-04-09T09:15:05.021Z,101126.77
2023-04-09T09:17:35.721Z,101126.84
2023-04-09T09:20:21.036Z,101124.41
2023-04-09T09:22:55.618Z,101130.02
2023-04-09T09:25:25.914Z,101126.92
2023-04-09T09:27:54.969Z,101127.93
2023-04-09T09:30:27.613Z,101131.66
2023-04-09T09:33:12.299Z,101131.40
2023-04-09T09:35:55.281Z,101129.56
2023-04-09T09:38:23.676Z,101129.84
2023-04-09T09:40:52.518Z,101128.13
2023-04-09T09:43:21.520Z,101127.63
2023-04-09T09:45:50.056Z,101127.25
2023-04-09T09:48:18.486Z,101121.75
2023-04-09T09:50:48.075Z,101122.83
2023-04-09T09:53:22.717Z,101124.98
2023-04-09T09:55:53.808Z,101123.80
2023-04-09T09:58:27.098Z,101121.77
2023-04-09T10:00:57.517Z,101119.86
2023-04-09T10:03:30.330Z,101118.86
2023-04-09T10:06:01.505Z,101117.98
2023-04-09T10:08:34.105Z,101115.36
2023-04-09T10:11:03.597Z,101110.23
2023-04-09T10:13:40.251Z,101105.97
2023-04-09T10:16:09.506Z,101108.27
2023-04-09T10:18:38.024Z,101109.92
2023-04-09T10:21:35.403Z,101112.10
2023-04-09T10:24:08.047Z,101116.81
2023-04-09T10:26:41.064Z,101114.23
2023-04-09T10:29:15.311Z,101113.77
2023-04-09T10:32:05.658Z,101113.19
2023-04-09T10:34:40.943Z,101114.58
2023-04-09T10:37:14.972Z,101112.23
2023-04-09T10:39:48.384Z,101117.56
2023-04-09T10:42:27.411Z,101114.30
2023-04-09T10:45:14.902Z,101116.34
2023-04-09T10:47:44.233Z,101114.61
2023-04-09T10:50:26.653Z,101113.89
2023-04-09T10:52:58.209Z,101112.79
2023-04-09T10:55:37.980Z,101114.74
2023-04-09T10:58:13.276Z,101115.11
2023-04-09T11:00:47.149Z,101111.64
2023-04-09T11:03:22.601Z,101108.02
2023-04-09T11:06:02.245Z,101107.34
2023-04-09T11:08:34.309Z,101107.34
2023-04-09T11:11:03.586Z,101100.19
2023-04-09T11:13:33.011Z,101098.70
2023-04-09T11:16:04.176Z,101101.02
2023-04-09T11:18:34.889Z,101105.40
2023-04-09T11:21:04.541Z,101106.09
2023-04-09T11:23:33.907Z,101105.42
2023-04-09T11:26:02.739Z,101103.67
2023-04-09T11:28:31.177Z,101099.33
2023-04-09T11:30:59.547Z,101099.91
2023-04-09T11:33:34.531Z,101097.67
2023-04-09T11:36:06.861Z,101097.41
2023-04-09T11:38:37.201Z,101096.27
2023-04-09T11:41:05.818Z,101097.10
2023-04-09T11:43:36.619Z,101098.00
2023-04-09T11:46:07.947Z,101096.20
2023-04-09T11:48:36.775Z,101096.74
2023-04-09T11:51:09.968Z,101095.27
2023-04-09T11:53:38.636Z,101092.55
2023-04-09T11:56:07.233Z,101091.95
2023-04-09T11:58:36.302Z,101092.16
2023-04-09T12:01:04.972Z,101095.56
2023-04-09T12:03:34.281Z,101099.57
2023-04-09T12:06:05.094Z,101098.31
2023-04-09T12:08:37.515Z,101104.73
2023-04-09T12:11:15.474Z,101105.89
2023-04-09T12:13:46.227Z,101104.27
2023-04-09T12:16:15.001Z,101102.39
2023-04-09T12:18:43.494Z,101108.23
2023-04-09T12:21:11.978Z,101109.48
2023-04-09T12:23:40.842Z,101107.87
2023-04-09T12:26:09.180Z,101113.98
2023-04-09T12:28:37.635Z,101114.43
2023-04-09T12:31:10.550Z,101111.82
2023-04-09T12:33:40.425Z,101109.21
2023-04-09T12:36:08.876Z,101104.35
2023-04-09T12:38:37.252Z,101106.35
2023-04-09T12:41:05.732Z,101109.26
2023-04-09T12:43:34.107Z,101108.23
2023-04-09T12:46:02.539Z,101106.60
2023-04-09T12:48:31.172Z,101104.95
2023-04-09T12:50:59.487Z,101103.70
2023-04-09T12:53:28.288Z,101104.77
2023-04-09T12:55:57.104Z,101104.11
2023-04-09T12:58:25.400Z,101105.41
2023-04-09T13:00:54.552Z,101103.14
2023-04-09T13:03:24.175Z,101104.08
2023-04-09T13:05:52.708Z,101100.98
2023-04-09T13:08:21.374Z,101101.48
2023-04-09T13:10:49.738Z,101102.83
2023-04-09T13:13:18.193Z,101102.09
2023-04-09T13:15:46.505Z,101100.91
2023-04-09T13:18:14.891Z,101104.48
2023-04-09T13:20:43.287Z,101103.52
2023-04-09T13:23:11.673Z,101103.03
2023-04-09T13:25:40.259Z,101103.98
2023-04-09T13:28:08.672Z,101104.38
2023-04-09T13:30:37.114Z,101103.23
2023-04-09T13:33:05.654Z,101105.30
2023-04-09T13:35:34.192Z,101102.39
2023-04-09T13:38:02.588Z,101104.78
2023-04-09T13:40:31.153Z,101104.74
2023-04-09T13:42:59.490Z,101104.38
2023-04-09T13:45:27.786Z,101099.64
2023-04-09T13:47:56.199Z,101102.09
2023-04-09T13:50:24.543Z,101098.60
2023-04-09T13:52:52.876Z,101099.58
2023-04-09T13:55:21.259Z,101100.57
2023-04-09T13:57:49.636Z,101102.98
2023-04-09T14:00:19.864Z,101098.46
2023-04-09T14:02:48.393Z,101099.01
2023-04-09T14:05:17.074Z,101100.84
2023-04-09T14:07:45.799Z,101101.59
2023-04-09T14:10:14.143Z,101102.84
2023-04-09T14:12:42.601Z,101099.45
2023-04-09T14:15:11.264Z,101098.46
2023-04-09T14:17:40.381Z,101100.48
2023-04-09T14:20:09.198Z,101096.39
2023-04-09T14:22:37.506Z,101093.94
2023-04-09T14:25:06.639Z,101092.84
2023-04-09T14:27:35.068Z,101088.49
2023-04-09T14:30:04.383Z,101092.04
2023-04-09T14:32:32.776Z,101088.25
2023-04-09T14:35:02.055Z,101088.14
2023-04-09T14:37:30.710Z,101087.81
2023-04-09T14:39:59.034Z,101080.14
2023-04-09T14:42:27.491Z,101082.55
2023-04-09T14:44:56.090Z,101082.85
2023-04-09T14:47:24.405Z,101083.54
2023-04-09T14:49:52.686Z,101087.52
2023-04-09T14:52:21.040Z,101081.00
2023-04-09T14:54:49.349Z,101086.19
2023-04-09T14:57:17.766Z,101082.20
2023-04-09T14:59:46.177Z,101078.45
2023-04-09T15:02:14.663Z,101076.93
2023-04-09T15:04:43.271Z,101079.25
2023-04-09T15:07:11.785Z,101079.08
2023-04-09T15:09:40.220Z,101076.58
2023-04-09T15:12:09.719Z,101077.11
2023-04-09T15:14:38.052Z,101075.14
2023-04-09T15:17:06.610Z,101076.90
2023-04-09T15:19:35.081Z,101074.45
2023-04-09T15:22:03.391Z,101074.96
2023-04-09T15:24:31.889Z,101076.42
2023-04-09T15:27:01.252Z,101075.05
2023-04-09T15:29:29.596Z,101072.05
2023-04-09T15:31:58.093Z,101071.64
2023-04-09T15:34:26.631Z,101072.69
2023-04-09T15:36:55.022Z,101074.13
2023-04-09T15:39:24.702Z,101070.36
2023-04-09T15:41:53.041Z,101071.02
2023-04-09T15:44:21.444Z,101072.73
2023-04-09T15:46:49.817Z,101068.50
2023-04-09T15:49:19.536Z,101070.31
2023-04-09T15:51:48.564Z,101072.48
2023-04-09T15:54:16.970Z,101070.62
2023-04-09T15:56:45.544Z,101071.77
2023-04-09T15:59:13.978Z,101069.45
2023-04-09T16:01:42.343Z,101066.61
2023-04-09T16:04:11.095Z,101068.48
2023-04-09T16:06:39.740Z,101069.27
2023-04-09T16:09:08.234Z,101069.05
2023-04-09T16:11:37.504Z,101069.52
2023-04-09T16:14:05.992Z,101069.39
2023-04-09T16:16:34.508Z,101067.00
2023-04-09T16:19:03.051Z,101070.53
2023-04-09T16:21:32.246Z,101070.01
2023-04-09T16:24:00.878Z,101073.16
2023-04-09T16:26:29.252Z,101075.71
2023-04-09T16:29:02.963Z,101076.17
2023-04-09T16:31:31.486Z,101071.16
2023-04-09T16:34:00.146Z,101073.91
2023-04-09T16:36:31.599Z,101070.50
2023-04-09T16:38:59.967Z,101071.05
2023-04-09T16:41:28.328Z,101074.16
2023-04-09T16:43:56.659Z,101070.20
2023-04-09T16:46:25.133Z,101071.61
2023-04-09T16:48:53.753Z,101074.25
2023-04-09T16:51:22.263Z,101070.13
2023-04-09T16:53:50.739Z,101072.56
2023-04-09T16:56:19.341Z,101072.75
2023-04-09T16:58:47.925Z,101074.50
2023-04-09T17:01:16.405Z,101076.57
2023-04-09T17:03:44.994Z,101072.97
2023-04-09T17:06:13.563Z,101071.45
2023-04-09T17:08:42.240Z,101074.43
2023-04-09T17:11:15.912Z,101075.13
2023-04-09T17:13:44.457Z,101076.60
2023-04-09T17:16:13.047Z,101078.83
2023-04-09T17:18:41.464Z,101084.39
2023-04-09T17:21:10.091Z,101084.86
2023-04-09T17:23:38.487Z,101086.70
2023-04-09T17:26:07.102Z,101085.60
2023-04-09T17:28:35.481Z,101080.82
2023-04-09T17:31:04.168Z,101080.19
2023-04-09T17:33:32.758Z,101087.05
2023-04-09T17:36:01.570Z,101086.15
2023-04-09T17:38:31.721Z,101086.42
2023-04-09T17:41:00.352Z,101090.69
2023-04-09T17:43:28.696Z,101093.52
2023-04-09T17:45:57.148Z,101095.42
2023-04-09T17:48:25.918Z,101096.70
2023-04-09T17:50:54.608Z,101100.78
2023-04-09T17:53:23.196Z,101099.52
2023-04-09T17:55:52.069Z,101099.16
2023-04-09T17:58:20.607Z,101100.49
2023-04-09T18:00:48.946Z,101100.05
2023-04-09T18:03:17.892Z,101101.06
2023-04-09T18:05:46.626Z,101101.02
2023-04-09T18:08:15.003Z,101103.80
2023-04-09T18:10:43.303Z,101103.48
2023-04-09T18:13:11.612Z,101104.31
2023-04-09T18:15:40.054Z,101106.98
2023-04-09T18:18:08.377Z,101105.65
2023-04-09T18:20:36.848Z,101107.89
2023-04-09T18:23:05.154Z,101108.90
2023-04-09T18:25:33.656Z,101110.14
2023-04-09T18:28:02.080Z,101117.14
2023-04-09T18:30:31.186Z,101115.77
2023-04-09T18:32:59.922Z,101121.88
2023-04-09T18:35:28.377Z,101125.01
2023-04-09T18:37:56.798Z,101126.63
2023-04-09T18:40:25.268Z,101129.96
2023-04-09T18:42:53.985Z,101132.46
2023-04-09T18:45:22.731Z,101131.33
2023-04-09T18:47:51.168Z,101132.91
2023-04-09T18:50:19.573Z,101138.18
2023-04-09T18:52:47.903Z,101139.89
2023-04-09T18:55:16.870Z,101142.23
2023-04-09T18:57:45.266Z,101142.35
2023-04-09T19:00:14.357Z,101143.02
2023-04-09T19:02:42.943Z,101142.44
2023-04-09T19:05:11.836Z,101143.06
2023-04-09T19:07:40.246Z,101140.33
2023-04-09T19:10:09.298Z,101140.39
2023-04-09T19:12:38.308Z,101140.98
2023-04-09T19:15:07.492Z,101143.85
2023-04-09T19:17:35.917Z,101142.60
2023-04-09T19:20:05.048Z,101142.88
2023-04-09T19:22:33.549Z,101143.83
2023-04-09T19:25:01.883Z,101146.34
2023-04-09T19:27:30.491Z,101143.94
2023-04-09T19:30:01.033Z,101144.01
2023-04-09T19:32:29.418Z,101148.55
2023-04-09T19:34:57.782Z,101148.48
2023-04-09T19:37:28.119Z,101150.14
2023-04-09T19:39:58.338Z,101154.08
2023-04-09T19:42:28.729Z,101155.88
2023-04-09T19:44:57.097Z,101156.84
2023-04-09T19:47:27.618Z,101155.13
2023-04-09T19:49:56.041Z,101155.86
2023-04-09T19:52:25.074Z,101158.38
2023-04-09T19:54:55.658Z,101158.83
2023-04-09T19:57:24.015Z,101156.17
2023-04-09T19:59:52.505Z,101157.66
2023-04-09T20:02:21.150Z,101158.89
2023-04-09T20:04:50.610Z,101162.17
2023-04-09T20:07:18.903Z,101162.36
2023-04-09T20:09:47.278Z,101169.80
2023-04-09T20:12:15.726Z,101168.42
2023-04-09T20:14:44.707Z,101167.55
2023-04-09T20:17:13.513Z,101168.30
2023-04-09T20:19:42.042Z,101169.28
2023-04-09T20:22:10.421Z,101166.30
2023-04-09T20:24:38.966Z,101169.52
2023-04-09T20:27:07.283Z,101166.66
2023-04-09T20:29:35.677Z,101171.16
2023-04-09T20:32:04.036Z,101169.55
2023-04-09T20:34:32.651Z,101169.66
2023-04-09T20:37:01.688Z,101167.21
2023-04-09T20:39:31.256Z,101170.15
2023-04-09T20:41:59.663Z,101170.51
2023-04-09T20:44:28.656Z,101171.89
2023-04-09T20:46:57.045Z,101168.82
2023-04-09T20:49:25.450Z,101165.72
2023-04-09T20:51:53.835Z,101161.98
2023-04-09T20:54:23.199Z,101162.55
2023-04-09T20:56:51.785Z,101163.17
2023-04-09T20:59:20.197Z,101163.23
2023-04-09T21:01:48.953Z,101165.92
2023-04-09T21:04:17.618Z,101158.97
2023-04-09T21:06:46.074Z,101156.80
2023-04-09T21:09:14.435Z,101164.11
2023-04-09T21:11:42.839Z,101166.13
2023-04-09T21:14:12.821Z,101164.73
2023-04-09T21:16:41.492Z,101166.30
2023-04-09T21:19:09.979Z,101161.88
2023-04-09T21:21:38.388Z,101158.80
2023-04-09T21:24:06.712Z,101166.86
2023-04-09T21:26:49.291Z,101165.02
2023-04-09T21:29:22.002Z,101164.64
2023-04-09T21:31:50.344Z,101163.40
2023-04-09T21:34:18.668Z,101161.80
2023-04-09T21:36:47.254Z,101161.02
2023-04-09T21:39:15.855Z,101159.88
2023-04-09T21:41:44.188Z,101161.52
2023-04-09T21:44:12.546Z,101161.84
2023-04-09T21:46:41.785Z,101162.61
2023-04-09T21:49:10.237Z,101165.33
2023-04-09T21:51:39.081Z,101165.10
2023-04-09T21:54:09.864Z,101166.25
2023-04-09T21:56:38.934Z,101162.74
2023-04-09T21:59:07.337Z,101160.13
2023-04-09T22:01:35.749Z,101161.78
2023-04-09T22:04:04.521Z,101159.45
2023-04-09T22:06:33.204Z,101161.66
2023-04-09T22:09:01.846Z,101164.92
2023-04-09T22:11:30.872Z,101164.30
2023-04-09T22:13:59.240Z,101164.92
2023-04-09T22:16:27.856Z,101162.38
2023-04-09T22:18:56.875Z,101161.45
2023-04-09T22:21:26.590Z,101160.70
2023-04-09T22:23:55.189Z,101157.43
2023-04-09T22:26:23.978Z,101156.42
2023-04-09T22:28:52.471Z,101157.66
2023-04-09T22:31:21.605Z,101153.16
2023-04-09T22:33:50.083Z,101155.92
2023-04-09T22:36:19.086Z,101149.67
2023-04-09T22:38:47.446Z,101146.85
2023-04-09T22:41:17.526Z,101148.13
2023-04-09T22:43:46.143Z,101140.52
2023-04-09T22:46:14.794Z,101143.95
2023-04-09T22:48:45.011Z,101145.71
2023-04-09T22:51:14.094Z,101145.66
2023-04-09T22:53:42.687Z,101147.70
2023-04-09T22:56:11.074Z,101146.27
2023-04-09T22:58:40.083Z,101143.98
2023-04-09T23:01:08.521Z,101149.19
2023-04-09T23:03:37.029Z,101149.30
2023-04-09T23:06:06.062Z,101150.48
2023-04-09T23:08:34.371Z,101150.98
2023-04-09T23:11:02.752Z,101149.71
2023-04-09T23:13:31.312Z,101154.90
2023-04-09T23:15:59.649Z,101156.30
2023-04-09T23:18:27.972Z,101155.02
2023-04-09T23:20:56.343Z,101155.98
2023-04-09T23:23:24.783Z,101153.63
2023-04-09T23:25:53.671Z,101153.52
2023-04-09T23:28:21.938Z,101156.50
2023-04-09T23:30:50.364Z,101153.58
2023-04-09T23:33:19.626Z,101157.58
2023-04-09T23:35:48.107Z,101153.86
2023-04-09T23:38:16.577Z,101149.02
2023-04-09T23:40:47.253Z,101156.33
2023-04-09T23:43:15.963Z,101153.45
2023-04-09T23:45:44.663Z,101149.85
2023-04-09T23:48:13.022Z,101156.14
2023-04-09T23:50:42.147Z,101155.25
2023-04-09T23:53:11.026Z,101148.46
2023-04-09T23:55:41.360Z,101147.98
2023-04-09T23:58:09.991Z,101142.97
